createdAt,value
2023-01-01T00:00:19.490Z,135
2023-01-01T00:05:16.416Z,158
2023-01-01T00:10:16.415Z,158
2023-01-01T00:15:16.433Z,180
2023-01-01T00:20:16.417Z,158
2023-01-01T00:25:16.415Z,180
2023-01-01T00:30:16.421Z,180
2023-01-01T00:35:16.668Z,158
2023-01-01T00:40:16.456Z,158
2023-01-01T00:45:21.554Z,180
2023-01-01T00:50:19.399Z,158
2023-01-01T00:55:19.410Z,135
2023-01-01T01:00:19.423Z,158
2023-01-01T01:05:19.404Z,180
2023-01-01T01:10:19.406Z,180
2023-01-01T01:15:19.432Z,180
2023-01-01T01:20:19.439Z,180
2023-01-01T01:25:19.452Z,158
2023-01-01T01:30:19.393Z,202
2023-01-01T01:35:19.401Z,180
2023-01-01T01:40:19.419Z,180
2023-01-01T01:45:16.419Z,158
2023-01-01T01:50:19.421Z,180
2023-01-01T01:55:19.461Z,202
2023-01-01T02:00:16.489Z,248
2023-01-01T02:05:19.477Z,248
2023-01-01T02:10:16.445Z,180
2023-01-01T02:15:19.536Z,202
2023-01-01T02:20:19.374Z,180
2023-01-01T02:25:19.418Z,202
2023-01-01T02:30:16.287Z,180
2023-01-01T02:35:19.471Z,225
2023-01-01T02:40:16.546Z,202
2023-01-01T02:45:19.464Z,180
2023-01-01T02:50:16.529Z,180
2023-01-01T02:55:19.441Z,158
2023-01-01T03:00:19.599Z,180
2023-01-01T03:05:16.470Z,158
2023-01-01T03:10:16.462Z,180
2023-01-01T03:15:16.475Z,180
2023-01-01T03:20:19.507Z,180
2023-01-01T03:25:19.606Z,158
2023-01-01T03:30:16.518Z,158
2023-01-01T03:35:19.552Z,158
2023-01-01T03:40:19.499Z,202
2023-01-01T03:45:16.501Z,180
2023-01-01T03:50:16.383Z,180
2023-01-01T03:55:16.509Z,180
2023-01-01T04:00:19.518Z,180
2023-01-01T04:05:19.475Z,180
2023-01-01T04:10:19.456Z,225
2023-01-01T04:15:16.529Z,225
2023-01-01T04:20:19.483Z,202
2023-01-01T04:25:19.493Z,225
2023-01-01T04:30:19.507Z,225
2023-01-01T04:35:19.533Z,225
2023-01-01T04:40:16.511Z,225
2023-01-01T04:45:16.547Z,202
2023-01-01T04:50:19.493Z,225
2023-01-01T04:55:16.521Z,225
2023-01-01T05:00:15.797Z,225
2023-01-01T05:05:18.811Z,225
2023-01-01T05:10:18.783Z,202
2023-01-01T05:15:15.753Z,225
2023-01-01T05:20:15.773Z,225
2023-01-01T05:25:15.825Z,225
2023-01-01T05:30:15.809Z,225
2023-01-01T05:35:24.507Z,225
2023-01-01T05:40:18.749Z,202
2023-01-01T05:45:15.794Z,225
2023-01-01T05:50:18.788Z,202
2023-01-01T05:55:18.800Z,202
2023-01-01T06:00:18.903Z,202
2023-01-01T06:05:18.891Z,202
2023-01-01T06:10:18.885Z,225
2023-01-01T06:15:18.849Z,225
2023-01-01T06:20:18.772Z,225
2023-01-01T06:25:18.784Z,225
2023-01-01T06:30:15.823Z,225
2023-01-01T06:35:18.866Z,225
2023-01-01T06:40:15.810Z,225
2023-01-01T06:45:18.834Z,225
2023-01-01T06:50:18.757Z,225
2023-01-01T06:55:18.773Z,225
2023-01-01T07:00:15.820Z,225
2023-01-01T07:05:15.890Z,225
2023-01-01T07:10:18.778Z,225
2023-01-01T07:15:15.860Z,225
2023-01-01T07:20:15.865Z,180
2023-01-01T07:30:18.814Z,225
2023-01-01T07:40:18.881Z,225
2023-01-01T07:45:18.876Z,225
2023-01-01T07:50:15.850Z,225
2023-01-01T07:55:18.909Z,225
2023-01-01T08:00:18.814Z,225
2023-01-01T08:05:26.075Z,225
2023-01-01T08:10:15.864Z,225
2023-01-01T08:15:18.875Z,225
2023-01-01T08:20:18.846Z,225
2023-01-01T08:25:15.908Z,225
2023-01-01T08:30:18.840Z,225
2023-01-01T08:35:15.784Z,225
2023-01-01T08:40:15.933Z,225
2023-01-01T08:45:18.908Z,225
2023-01-01T08:50:18.853Z,225
2023-01-01T08:55:15.931Z,225
2023-01-01T09:00:18.936Z,225
2023-01-01T09:05:18.869Z,225
2023-01-01T09:10:15.746Z,225
2023-01-01T09:15:15.776Z,225
2023-01-01T09:20:15.902Z,225
2023-01-01T09:25:18.860Z,225
2023-01-01T09:30:18.917Z,225
2023-01-01T09:35:18.900Z,225
2023-01-01T09:40:15.900Z,225
2023-01-01T09:45:18.926Z,225
2023-01-01T09:50:18.900Z,225
2023-01-01T09:55:15.957Z,225
2023-01-01T10:00:18.967Z,225
2023-01-01T10:05:18.904Z,225
2023-01-01T10:10:15.895Z,225
2023-01-01T10:15:15.920Z,225
2023-01-01T10:20:18.947Z,225
2023-01-01T10:25:19.163Z,225
2023-01-01T10:30:15.971Z,225
2023-01-01T10:35:15.962Z,225
2023-01-01T10:40:18.940Z,225
2023-01-01T10:45:15.953Z,225
2023-01-01T10:50:18.914Z,225
2023-01-01T10:55:18.967Z,225
2023-01-01T11:00:15.968Z,225
2023-01-01T11:05:21.871Z,225
2023-01-01T11:10:18.908Z,225
2023-01-01T11:15:18.933Z,225
2023-01-01T11:20:18.905Z,225
2023-01-01T11:25:18.912Z,225
2023-01-01T11:30:19.040Z,225
2023-01-01T11:35:16.036Z,225
2023-01-01T11:40:19.078Z,225
2023-01-01T11:45:18.971Z,225
2023-01-01T11:50:15.950Z,225
2023-01-01T11:55:18.999Z,225
2023-01-01T12:00:19.071Z,225
2023-01-01T12:05:19.014Z,225
2023-01-01T12:10:18.971Z,225
2023-01-01T12:15:16.007Z,225
2023-01-01T12:20:16.101Z,225
2023-01-01T12:25:19.043Z,225
2023-01-01T12:30:19.006Z,225
2023-01-01T12:35:18.906Z,225
2023-01-01T12:40:21.153Z,225
2023-01-01T12:45:16.010Z,225
2023-01-01T12:50:19.002Z,225
2023-01-01T12:55:19.000Z,225
2023-01-01T13:00:19.013Z,225
2023-01-01T13:05:16.038Z,225
2023-01-01T13:10:19.006Z,225
2023-01-01T13:15:16.034Z,225
2023-01-01T13:20:19.041Z,225
2023-01-01T13:25:19.020Z,225
2023-01-01T13:30:16.026Z,225
2023-01-01T13:35:19.033Z,225
2023-01-01T13:40:16.036Z,225
2023-01-01T13:45:44.108Z,225
2023-01-01T13:50:15.807Z,225
2023-01-01T13:55:16.070Z,225
2023-01-01T14:00:16.133Z,225
2023-01-01T14:05:16.070Z,225
2023-01-01T14:10:19.010Z,225
2023-01-01T14:15:16.046Z,225
2023-01-01T14:20:16.143Z,225
2023-01-01T14:25:16.029Z,225
2023-01-01T14:30:19.033Z,225
2023-01-01T14:35:16.038Z,248
2023-01-01T14:40:16.025Z,225
2023-01-01T14:45:19.036Z,225
2023-01-01T14:50:19.032Z,225
2023-01-01T14:55:19.091Z,225
2023-01-01T15:00:16.087Z,225
2023-01-01T15:05:16.021Z,248
2023-01-01T15:10:16.050Z,225
2023-01-01T15:15:19.079Z,225
2023-01-01T15:20:16.117Z,225
2023-01-01T15:25:19.033Z,225
2023-01-01T15:30:19.039Z,225
2023-01-01T15:35:19.079Z,225
2023-01-01T15:40:16.064Z,248
2023-01-01T15:45:19.152Z,225
2023-01-01T15:50:19.046Z,270
2023-01-01T15:55:16.083Z,225
2023-01-01T16:00:19.068Z,270
2023-01-01T16:05:19.084Z,292
2023-01-01T16:10:16.099Z,270
2023-01-01T16:15:19.048Z,225
2023-01-01T16:20:19.094Z,248
2023-01-01T16:25:15.910Z,292
2023-01-01T16:30:16.132Z,225
2023-01-01T16:35:19.113Z,225
2023-01-01T16:40:16.111Z,225
2023-01-01T16:45:16.129Z,225
2023-01-01T16:50:16.095Z,225
2023-01-01T16:55:19.127Z,225
2023-01-01T17:00:19.093Z,248
2023-01-01T17:05:16.042Z,225
2023-01-01T17:10:19.165Z,270
2023-01-01T17:15:19.072Z,270
2023-01-01T17:20:19.062Z,292
2023-01-01T17:25:16.104Z,270
2023-01-01T17:30:16.131Z,292
2023-01-01T17:35:16.109Z,225
2023-01-01T17:40:16.136Z,225
2023-01-01T17:45:16.014Z,225
2023-01-01T17:50:19.126Z,248
2023-01-01T17:55:19.091Z,225
2023-01-01T18:00:16.194Z,225
2023-01-01T18:05:19.158Z,225
2023-01-01T18:10:19.116Z,292
2023-01-01T18:15:19.085Z,225
2023-01-01T18:20:19.086Z,225
2023-01-01T18:25:16.084Z,225
2023-01-01T18:30:19.146Z,248
2023-01-01T18:35:19.126Z,292
2023-01-01T18:40:16.184Z,270
2023-01-01T18:45:16.183Z,292
2023-01-01T18:50:16.147Z,225
2023-01-01T18:55:19.165Z,225
2023-01-01T19:00:19.154Z,225
2023-01-01T19:05:15.968Z,225
2023-01-01T19:10:19.128Z,270
2023-01-01T19:15:19.172Z,270
2023-01-01T19:20:16.171Z,225
2023-01-01T19:25:19.186Z,225
2023-01-01T19:30:19.107Z,225
2023-01-01T19:35:19.147Z,248
2023-01-01T19:40:19.142Z,225
2023-01-01T19:45:19.166Z,225
2023-01-01T19:50:19.183Z,225
2023-01-01T19:55:19.123Z,225
2023-01-01T20:00:19.237Z,225
2023-01-01T20:05:16.264Z,225
2023-01-01T20:10:19.160Z,225
2023-01-01T20:15:19.173Z,248
2023-01-01T20:20:19.184Z,225
2023-01-01T20:25:19.135Z,248
2023-01-01T20:30:19.177Z,270
2023-01-01T20:35:16.221Z,225
2023-01-01T20:40:16.207Z,225
2023-01-01T20:45:19.196Z,225
2023-01-01T20:50:19.193Z,225
2023-01-01T20:55:19.169Z,225
2023-01-01T21:00:19.132Z,225
2023-01-01T21:05:19.188Z,225
2023-01-01T21:10:16.213Z,225
2023-01-01T21:15:19.237Z,225
2023-01-01T21:20:19.165Z,225
2023-01-01T21:25:49.206Z,225
2023-01-01T21:30:16.281Z,225
2023-01-01T21:35:19.222Z,225
2023-01-01T21:40:16.270Z,225
2023-01-01T21:45:16.259Z,225
2023-01-01T21:50:19.210Z,225
2023-01-01T21:55:19.427Z,225
2023-01-01T22:00:16.305Z,225
2023-01-01T22:05:19.244Z,225
2023-01-01T22:10:19.214Z,225
2023-01-01T22:15:19.204Z,225
2023-01-01T22:20:19.186Z,225
2023-01-01T22:25:19.234Z,225
2023-01-01T22:30:19.256Z,225
2023-01-01T22:35:19.280Z,225
2023-01-01T22:40:16.299Z,225
2023-01-01T22:45:19.267Z,225
2023-01-01T22:50:19.224Z,225
2023-01-01T22:55:16.278Z,225
2023-01-01T23:00:19.297Z,225
2023-01-01T23:05:19.299Z,225
2023-01-01T23:10:19.257Z,225
2023-01-01T23:15:16.286Z,248
2023-01-01T23:20:16.300Z,225
2023-01-01T23:25:19.277Z,225
2023-01-01T23:30:19.250Z,225
2023-01-01T23:35:19.287Z,225
2023-01-01T23:40:19.246Z,225
2023-01-01T23:45:19.276Z,225
2023-01-01T23:50:19.252Z,225
2023-01-01T23:55:19.279Z,225
